North Branford, CT

11:50 AM EDT on June 02, 2015 (GMT -0400)
Branford | | Change Station
CLOSE
Current Station
Personal Weather Station
Location: Branford, CT
Elevation: 125 ft
Nearby Weather Stations

Elev 125 ft 41.30 °N, 72.79 °W | Updated 12 seconds ago

Overcast
Overcast
49.6 °F
Feels Like 50 °F
N
0.0
Wind Variable Wind from NNE
Gusts 0.0 mph

Today
High -- | Low -- °F
--% Chance of Precip.
Yesterday
High -- | Low -- °F
Precip. -- in
5:19 AM 8:18 PM
Full, 100% visible
Pressure 30.15 in
Visibility 10.0 miles
Clouds Mostly Cloudy 900 ft
Overcast 1400 ft
Windchill 50 °F
Dew Point 48 °F
Humidity 95%
Rainfall 0.25 in
Snow Depth Not available.
UV 3 out of 12
Pollen .50 out of 12
Air Quality Not available.
Flu Activity Local Activity
SPECI KHVN 021459Z 01010KT 10SM BKN009 OVC014 11/09 A3015 RMK AO2 T01060089

More Conditions Fewer Conditions

Pressure 30.15 in
Visibility 10.0 miles
Clouds Mostly Cloudy 900 ft
Overcast 1400 ft
Windchill 50 °F
Dew Point 48 °F
Humidity 95%
Rainfall 0.25 in
Snow Depth Not available.
UV 3 out of 12
Pollen .50 out of 12
Air Quality Not available.
Flu Activity Local Activity
SPECI KHVN 021459Z 01010KT 10SM BKN009 OVC014 11/09 A3015 RMK AO2 T01060089

More Conditions Fewer Conditions

10-Day Weather Forecast

Almanac

Astronomy

Jun. 02, 2015 Rise Set
Actual Time
Civil Twilight
Nautical Twilight
Astronomical Twilight
Moon
Length of Visible Light
Length of Day
Tomorrow will be .
, % of the Moon is Illuminated

Today's Extremes

State Highs State Lows

Community

WunderPhotos

Upload Photos

1,825,966 photos uploaded!

WunderBlogs® & News

Nearby

Air Quality

  Air Quality AQ Index Pollutant
Not available.

Snow Depth

Station Depth Elevation

Earthquake Activity

City Distance Mag. Time & Date
Minimum magnitude displayed is 2.5.

Coastal Water Temperatures

Place Temperature

Stations

Nearby Weather Stations

Station Location Temp. Windchill Dew Point Humidity Wind Precip. Elev Updated Type